sensor_id;sensor_type;location;lat;lon;timestamp;temperature;humidity
66312;HTU21D;53114;51.138;6.008;2023-07-09T00:01:18;22.99;118.99
66312;HTU21D;53114;51.138;6.008;2023-07-09T00:03:47;22.96;118.99
66312;HTU21D;53114;51.138;6.008;2023-07-09T00:06:20;22.94;118.99
66312;HTU21D;53114;51.138;6.008;2023-07-09T00:08:46;22.87;118.99
66312;HTU21D;53114;51.138;6.008;2023-07-09T00:11:14;22.86;118.99
66312;HTU21D;53114;51.138;6.008;2023-07-09T00:13:40;22.86;118.99
66312;HTU21D;53114;51.138;6.008;2023-07-09T00:16:15;22.86;118.99
66312;HTU21D;53114;51.138;6.008;2023-07-09T00:18:42;22.81;118.99
66312;HTU21D;53114;51.138;6.008;2023-07-09T00:21:08;22.75;118.99
66312;HTU21D;53114;51.138;6.008;2023-07-09T00:23:34;22.69;118.99
66312;HTU21D;53114;51.138;6.008;2023-07-09T00:26:00;22.65;118.99
66312;HTU21D;53114;51.138;6.008;2023-07-09T00:28:28;22.61;118.99
66312;HTU21D;53114;51.138;6.008;2023-07-09T00:30:54;22.55;118.99
66312;HTU21D;53114;51.138;6.008;2023-07-09T00:33:20;22.50;118.99
66312;HTU21D;53114;51.138;6.008;2023-07-09T00:35:47;22.47;118.99
66312;HTU21D;53114;51.138;6.008;2023-07-09T00:38:19;22.41;118.99
66312;HTU21D;53114;51.138;6.008;2023-07-09T00:41:01;22.38;118.99
66312;HTU21D;53114;51.138;6.008;2023-07-09T00:43:34;22.34;118.99
66312;HTU21D;53114;51.138;6.008;2023-07-09T00:49:07;22.29;118.99
66312;HTU21D;53114;51.138;6.008;2023-07-09T00:51:40;22.29;118.99
66312;HTU21D;53114;51.138;6.008;2023-07-09T00:54:19;22.26;118.99
66312;HTU21D;53114;51.138;6.008;2023-07-09T00:56:52;22.22;118.99
66312;HTU21D;53114;51.138;6.008;2023-07-09T00:59:24;22.24;118.99
66312;HTU21D;53114;51.138;6.008;2023-07-09T01:01:55;22.21;118.99
66312;HTU21D;53114;51.138;6.008;2023-07-09T01:04:24;22.20;118.99
66312;HTU21D;53114;51.138;6.008;2023-07-09T01:06:52;22.21;118.99
66312;HTU21D;53114;51.138;6.008;2023-07-09T01:09:23;22.21;118.99
66312;HTU21D;53114;51.138;6.008;2023-07-09T01:11:49;22.20;118.99
66312;HTU21D;53114;51.138;6.008;2023-07-09T01:14:19;22.19;118.99
66312;HTU21D;53114;51.138;6.008;2023-07-09T01:16:55;22.24;118.99
66312;HTU21D;53114;51.138;6.008;2023-07-09T01:19:24;22.25;118.99
66312;HTU21D;53114;51.138;6.008;2023-07-09T01:21:58;22.23;118.99
66312;HTU21D;53114;51.138;6.008;2023-07-09T01:27:13;22.20;118.99
66312;HTU21D;53114;51.138;6.008;2023-07-09T01:29:42;22.22;118.99
66312;HTU21D;53114;51.138;6.008;2023-07-09T01:32:09;22.22;118.99
66312;HTU21D;53114;51.138;6.008;2023-07-09T01:34:35;22.21;118.99
66312;HTU21D;53114;51.138;6.008;2023-07-09T01:37:02;22.17;118.99
66312;HTU21D;53114;51.138;6.008;2023-07-09T01:39:28;22.12;118.99
66312;HTU21D;53114;51.138;6.008;2023-07-09T01:41:55;22.09;118.99
66312;HTU21D;53114;51.138;6.008;2023-07-09T01:44:22;22.06;118.99
66312;HTU21D;53114;51.138;6.008;2023-07-09T01:46:48;22.02;118.99
66312;HTU21D;53114;51.138;6.008;2023-07-09T01:49:16;21.96;118.99
66312;HTU21D;53114;51.138;6.008;2023-07-09T01:51:42;21.93;118.99
66312;HTU21D;53114;51.138;6.008;2023-07-09T01:54:08;21.90;118.99
66312;HTU21D;53114;51.138;6.008;2023-07-09T01:56:35;21.89;118.99
66312;HTU21D;53114;51.138;6.008;2023-07-09T01:59:05;21.82;118.99
66312;HTU21D;53114;51.138;6.008;2023-07-09T02:01:31;21.77;118.99
66312;HTU21D;53114;51.138;6.008;2023-07-09T02:04:01;21.74;118.99
66312;HTU21D;53114;51.138;6.008;2023-07-09T02:06:30;21.73;118.99
66312;HTU21D;53114;51.138;6.008;2023-07-09T02:08:58;21.72;118.99
66312;HTU21D;53114;51.138;6.008;2023-07-09T02:11:24;21.70;118.99
66312;HTU21D;53114;51.138;6.008;2023-07-09T02:13:51;21.65;118.99
66312;HTU21D;53114;51.138;6.008;2023-07-09T02:16:17;21.65;118.99
66312;HTU21D;53114;51.138;6.008;2023-07-09T02:18:43;21.68;118.99
66312;HTU21D;53114;51.138;6.008;2023-07-09T02:21:09;21.68;118.99
66312;HTU21D;53114;51.138;6.008;2023-07-09T02:23:34;21.68;118.99
66312;HTU21D;53114;51.138;6.008;2023-07-09T02:26:00;21.69;118.99
66312;HTU21D;53114;51.138;6.008;2023-07-09T02:28:26;21.69;118.99
66312;HTU21D;53114;51.138;6.008;2023-07-09T02:30:53;21.69;118.99
66312;HTU21D;53114;51.138;6.008;2023-07-09T02:33:19;21.72;118.99
66312;HTU21D;53114;51.138;6.008;2023-07-09T02:35:46;21.73;118.99
66312;HTU21D;53114;51.138;6.008;2023-07-09T02:38:12;21.72;118.99
66312;HTU21D;53114;51.138;6.008;2023-07-09T02:40:38;21.76;118.99
66312;HTU21D;53114;51.138;6.008;2023-07-09T02:43:04;21.79;118.99
66312;HTU21D;53114;51.138;6.008;2023-07-09T02:45:31;21.76;118.99
66312;HTU21D;53114;51.138;6.008;2023-07-09T02:47:57;21.73;118.99
66312;HTU21D;53114;51.138;6.008;2023-07-09T02:50:23;21.74;118.99
66312;HTU21D;53114;51.138;6.008;2023-07-09T02:52:49;21.75;118.99
66312;HTU21D;53114;51.138;6.008;2023-07-09T02:55:15;21.70;118.99
66312;HTU21D;53114;51.138;6.008;2023-07-09T02:57:41;21.64;118.99
66312;HTU21D;53114;51.138;6.008;2023-07-09T03:00:08;21.60;118.99
66312;HTU21D;53114;51.138;6.008;2023-07-09T03:02:34;21.57;118.99
66312;HTU21D;53114;51.138;6.008;2023-07-09T03:05:00;21.53;118.99
66312;HTU21D;53114;51.138;6.008;2023-07-09T03:07:26;21.53;118.99
66312;HTU21D;53114;51.138;6.008;2023-07-09T03:09:52;21.48;118.99
66312;HTU21D;53114;51.138;6.008;2023-07-09T03:12:20;21.43;118.99
66312;HTU21D;53114;51.138;6.008;2023-07-09T03:14:49;21.40;118.99
66312;HTU21D;53114;51.138;6.008;2023-07-09T03:17:15;21.40;118.99
66312;HTU21D;53114;51.138;6.008;2023-07-09T03:19:41;21.40;118.99
66312;HTU21D;53114;51.138;6.008;2023-07-09T03:22:07;21.38;118.99
66312;HTU21D;53114;51.138;6.008;2023-07-09T03:24:33;21.35;118.99
66312;HTU21D;53114;51.138;6.008;2023-07-09T03:26:59;21.32;118.99
66312;HTU21D;53114;51.138;6.008;2023-07-09T03:29:25;21.31;118.99
66312;HTU21D;53114;51.138;6.008;2023-07-09T03:31:51;21.32;118.99
66312;HTU21D;53114;51.138;6.008;2023-07-09T03:34:17;21.29;118.99
66312;HTU21D;53114;51.138;6.008;2023-07-09T03:36:44;21.33;118.99
66312;HTU21D;53114;51.138;6.008;2023-07-09T03:39:10;21.33;118.99
66312;HTU21D;53114;51.138;6.008;2023-07-09T03:41:36;21.29;118.99
66312;HTU21D;53114;51.138;6.008;2023-07-09T03:44:02;21.25;118.99
66312;HTU21D;53114;51.138;6.008;2023-07-09T03:46:28;21.24;118.99
66312;HTU21D;53114;51.138;6.008;2023-07-09T03:48:54;21.27;118.99
66312;HTU21D;53114;51.138;6.008;2023-07-09T03:51:20;21.28;118.99
66312;HTU21D;53114;51.138;6.008;2023-07-09T03:53:46;21.27;118.99
66312;HTU21D;53114;51.138;6.008;2023-07-09T03:56:12;21.24;118.99
66312;HTU21D;53114;51.138;6.008;2023-07-09T03:58:38;21.24;118.99
66312;HTU21D;53114;51.138;6.008;2023-07-09T04:01:04;21.24;118.99
66312;HTU21D;53114;51.138;6.008;2023-07-09T04:03:30;21.25;118.99
66312;HTU21D;53114;51.138;6.008;2023-07-09T04:05:59;21.25;118.99
66312;HTU21D;53114;51.138;6.008;2023-07-09T04:08:25;21.28;118.99
66312;HTU21D;53114;51.138;6.008;2023-07-09T04:11:02;21.31;118.99
66312;HTU21D;53114;51.138;6.008;2023-07-09T04:13:29;21.34;118.99
66312;HTU21D;53114;51.138;6.008;2023-07-09T04:15:56;21.37;118.99
66312;HTU21D;53114;51.138;6.008;2023-07-09T04:18:21;21.38;118.99
66312;HTU21D;53114;51.138;6.008;2023-07-09T04:20:49;21.46;118.99
66312;HTU21D;53114;51.138;6.008;2023-07-09T04:23:16;21.48;118.99
66312;HTU21D;53114;51.138;6.008;2023-07-09T04:25:42;21.54;118.99
66312;HTU21D;53114;51.138;6.008;2023-07-09T04:28:08;21.55;118.99
66312;HTU21D;53114;51.138;6.008;2023-07-09T04:30:34;21.61;118.99
66312;HTU21D;53114;51.138;6.008;2023-07-09T04:33:00;21.65;118.99
66312;HTU21D;53114;51.138;6.008;2023-07-09T04:35:26;21.76;118.99
66312;HTU21D;53114;51.138;6.008;2023-07-09T04:37:52;21.79;118.99
66312;HTU21D;53114;51.138;6.008;2023-07-09T04:40:20;21.85;118.99
66312;HTU21D;53114;51.138;6.008;2023-07-09T04:42:46;21.90;118.99
66312;HTU21D;53114;51.138;6.008;2023-07-09T04:45:12;21.95;118.99
66312;HTU21D;53114;51.138;6.008;2023-07-09T04:47:38;21.99;118.99
66312;HTU21D;53114;51.138;6.008;2023-07-09T04:50:06;22.04;118.99
66312;HTU21D;53114;51.138;6.008;2023-07-09T04:52:34;22.07;118.99
66312;HTU21D;53114;51.138;6.008;2023-07-09T04:55:00;22.10;118.99
66312;HTU21D;53114;51.138;6.008;2023-07-09T04:57:28;22.17;118.99
66312;HTU21D;53114;51.138;6.008;2023-07-09T04:59:54;22.23;118.99
66312;HTU21D;53114;51.138;6.008;2023-07-09T05:02:20;22.26;118.99
66312;HTU21D;53114;51.138;6.008;2023-07-09T05:04:46;22.31;118.99
66312;HTU21D;53114;51.138;6.008;2023-07-09T05:07:12;22.35;118.99
66312;HTU21D;53114;51.138;6.008;2023-07-09T05:09:38;22.43;118.99
66312;HTU21D;53114;51.138;6.008;2023-07-09T05:12:04;22.46;118.99
66312;HTU21D;53114;51.138;6.008;2023-07-09T05:14:31;22.52;118.99
66312;HTU21D;53114;51.138;6.008;2023-07-09T05:16:57;22.58;118.99
66312;HTU21D;53114;51.138;6.008;2023-07-09T05:19:22;22.62;118.99
66312;HTU21D;53114;51.138;6.008;2023-07-09T05:21:49;22.64;118.99
66312;HTU21D;53114;51.138;6.008;2023-07-09T05:24:14;22.65;118.99
66312;HTU21D;53114;51.138;6.008;2023-07-09T05:26:41;22.70;118.99
66312;HTU21D;53114;51.138;6.008;2023-07-09T05:29:07;22.78;118.99
66312;HTU21D;53114;51.138;6.008;2023-07-09T05:31:33;22.84;118.99
66312;HTU21D;53114;51.138;6.008;2023-07-09T05:34:00;22.87;118.99
66312;HTU21D;53114;51.138;6.008;2023-07-09T05:36:27;22.92;118.99
66312;HTU21D;53114;51.138;6.008;2023-07-09T05:38:55;23.00;118.99
66312;HTU21D;53114;51.138;6.008;2023-07-09T05:41:21;23.05;118.99
66312;HTU21D;53114;51.138;6.008;2023-07-09T05:43:49;23.12;118.99
66312;HTU21D;53114;51.138;6.008;2023-07-09T05:46:15;23.21;118.99
66312;HTU21D;53114;51.138;6.008;2023-07-09T05:48:41;23.27;118.99
66312;HTU21D;53114;51.138;6.008;2023-07-09T05:51:07;23.34;118.99
66312;HTU21D;53114;51.138;6.008;2023-07-09T05:53:33;23.42;118.99
66312;HTU21D;53114;51.138;6.008;2023-07-09T05:55:59;23.53;118.99
66312;HTU21D;53114;51.138;6.008;2023-07-09T05:58:25;23.58;118.99
66312;HTU21D;53114;51.138;6.008;2023-07-09T06:00:53;23.68;118.99
66312;HTU21D;53114;51.138;6.008;2023-07-09T06:03:22;23.74;118.99
66312;HTU21D;53114;51.138;6.008;2023-07-09T06:05:48;23.84;118.99
66312;HTU21D;53114;51.138;6.008;2023-07-09T06:08:16;23.96;118.99
66312;HTU21D;53114;51.138;6.008;2023-07-09T06:10:54;24.05;118.99
66312;HTU21D;53114;51.138;6.008;2023-07-09T06:13:21;24.13;118.99
66312;HTU21D;53114;51.138;6.008;2023-07-09T06:15:51;24.24;118.99
66312;HTU21D;53114;51.138;6.008;2023-07-09T06:18:18;24.36;118.99
66312;HTU21D;53114;51.138;6.008;2023-07-09T06:20:50;24.48;118.99
66312;HTU21D;53114;51.138;6.008;2023-07-09T06:23:18;24.58;118.99
66312;HTU21D;53114;51.138;6.008;2023-07-09T06:25:45;24.70;118.87
66312;HTU21D;53114;51.138;6.008;2023-07-09T06:28:15;24.82;118.83
66312;HTU21D;53114;51.138;6.008;2023-07-09T06:30:42;24.90;118.99
66312;HTU21D;53114;51.138;6.008;2023-07-09T06:33:09;24.99;118.60
66312;HTU21D;53114;51.138;6.008;2023-07-09T06:35:35;25.04;118.53
66312;HTU21D;53114;51.138;6.008;2023-07-09T06:38:01;25.10;118.45
66312;HTU21D;53114;51.138;6.008;2023-07-09T06:40:28;25.16;118.99
66312;HTU21D;53114;51.138;6.008;2023-07-09T06:42:55;25.24;118.99
66312;HTU21D;53114;51.138;6.008;2023-07-09T06:45:28;25.35;118.05
66312;HTU21D;53114;51.138;6.008;2023-07-09T06:47:54;25.44;117.91
66312;HTU21D;53114;51.138;6.008;2023-07-09T06:50:20;25.52;117.62
66312;HTU21D;53114;51.138;6.008;2023-07-09T06:52:46;25.59;117.52
66312;HTU21D;53114;51.138;6.008;2023-07-09T06:55:12;25.69;116.78
66312;HTU21D;53114;51.138;6.008;2023-07-09T06:57:38;25.89;114.61
66312;HTU21D;53114;51.138;6.008;2023-07-09T07:00:05;26.03;112.99
66312;HTU21D;53114;51.138;6.008;2023-07-09T07:02:32;26.11;111.73
66312;HTU21D;53114;51.138;6.008;2023-07-09T07:04:59;26.21;112.66
66312;HTU21D;53114;51.138;6.008;2023-07-09T07:07:25;26.53;108.43
66312;HTU21D;53114;51.138;6.008;2023-07-09T07:09:51;26.77;104.44
66312;HTU21D;53114;51.138;6.008;2023-07-09T07:12:26;26.85;103.39
66312;HTU21D;53114;51.138;6.008;2023-07-09T07:14:53;26.85;103.79
66312;HTU21D;53114;51.138;6.008;2023-07-09T07:17:20;26.92;101.06
66312;HTU21D;53114;51.138;6.008;2023-07-09T07:19:46;26.96;101.02
66312;HTU21D;53114;51.138;6.008;2023-07-09T07:22:12;26.98;100.19
66312;HTU21D;53114;51.138;6.008;2023-07-09T07:24:38;27.06;96.89
66312;HTU21D;53114;51.138;6.008;2023-07-09T07:27:04;27.13;96.43
66312;HTU21D;53114;51.138;6.008;2023-07-09T07:29:30;27.23;95.98
66312;HTU21D;53114;51.138;6.008;2023-07-09T07:31:57;27.28;92.69
66312;HTU21D;53114;51.138;6.008;2023-07-09T07:34:23;27.43;87.91
66312;HTU21D;53114;51.138;6.008;2023-07-09T07:36:50;27.74;83.57
66312;HTU21D;53114;51.138;6.008;2023-07-09T07:39:16;27.95;82.33
66312;HTU21D;53114;51.138;6.008;2023-07-09T07:41:42;28.14;81.39
66312;HTU21D;53114;51.138;6.008;2023-07-09T07:44:08;28.53;78.99
66312;HTU21D;53114;51.138;6.008;2023-07-09T07:46:35;29.97;71.47
66312;HTU21D;53114;51.138;6.008;2023-07-09T07:49:01;32.25;56.89
66312;HTU21D;53114;51.138;6.008;2023-07-09T07:51:26;34.34;49.03
66312;HTU21D;53114;51.138;6.008;2023-07-09T07:53:53;36.14;44.06
66312;HTU21D;53114;51.138;6.008;2023-07-09T07:56:19;37.44;40.71
66312;HTU21D;53114;51.138;6.008;2023-07-09T07:58:45;38.66;37.26
66312;HTU21D;53114;51.138;6.008;2023-07-09T08:01:11;39.81;35.09
66312;HTU21D;53114;51.138;6.008;2023-07-09T08:03:37;40.60;33.36
66312;HTU21D;53114;51.138;6.008;2023-07-09T08:06:03;41.40;31.74
66312;HTU21D;53114;51.138;6.008;2023-07-09T08:08:29;42.03;30.29
66312;HTU21D;53114;51.138;6.008;2023-07-09T08:11:05;42.61;29.11
66312;HTU21D;53114;51.138;6.008;2023-07-09T08:13:37;42.88;28.84
66312;HTU21D;53114;51.138;6.008;2023-07-09T08:16:04;43.28;27.73
66312;HTU21D;53114;51.138;6.008;2023-07-09T08:18:31;43.66;26.83
66312;HTU21D;53114;51.138;6.008;2023-07-09T08:20:59;44.08;26.17
66312;HTU21D;53114;51.138;6.008;2023-07-09T08:23:25;44.27;26.04
66312;HTU21D;53114;51.138;6.008;2023-07-09T08:25:55;44.14;25.40
66312;HTU21D;53114;51.138;6.008;2023-07-09T08:28:22;44.25;25.23
66312;HTU21D;53114;51.138;6.008;2023-07-09T08:30:48;44.18;25.78
66312;HTU21D;53114;51.138;6.008;2023-07-09T08:33:14;44.39;25.54
66312;HTU21D;53114;51.138;6.008;2023-07-09T08:35:42;44.14;25.74
66312;HTU21D;53114;51.138;6.008;2023-07-09T08:38:09;44.46;24.85
66312;HTU21D;53114;51.138;6.008;2023-07-09T08:40:40;44.82;24.51
66312;HTU21D;53114;51.138;6.008;2023-07-09T08:43:34;44.60;24.78
66312;HTU21D;53114;51.138;6.008;2023-07-09T08:48:46;44.06;25.48
66312;HTU21D;53114;51.138;6.008;2023-07-09T08:51:19;44.05;25.72
66312;HTU21D;53114;51.138;6.008;2023-07-09T08:53:51;44.56;25.07
66312;HTU21D;53114;51.138;6.008;2023-07-09T08:56:20;44.56;25.58
66312;HTU21D;53114;51.138;6.008;2023-07-09T08:58:48;44.37;25.16
66312;HTU21D;53114;51.138;6.008;2023-07-09T09:01:23;44.09;25.83
66312;HTU21D;53114;51.138;6.008;2023-07-09T09:03:54;43.57;26.30
66312;HTU21D;53114;51.138;6.008;2023-07-09T09:06:27;43.10;27.14
66312;HTU21D;53114;51.138;6.008;2023-07-09T09:14:42;42.50;29.06
66312;HTU21D;53114;51.138;6.008;2023-07-09T09:17:15;42.57;29.42
66312;HTU21D;53114;51.138;6.008;2023-07-09T09:19:54;42.50;29.77
66312;HTU21D;53114;51.138;6.008;2023-07-09T09:22:28;42.38;29.96
66312;HTU21D;53114;51.138;6.008;2023-07-09T09:25:11;42.44;28.62
66312;HTU21D;53114;51.138;6.008;2023-07-09T09:27:37;42.65;27.60
66312;HTU21D;53114;51.138;6.008;2023-07-09T09:30:05;42.97;27.20
66312;HTU21D;53114;51.138;6.008;2023-07-09T09:32:45;43.32;26.42
66312;HTU21D;53114;51.138;6.008;2023-07-09T09:35:15;43.42;25.18
66312;HTU21D;53114;51.138;6.008;2023-07-09T09:37:50;43.35;24.71
66312;HTU21D;53114;51.138;6.008;2023-07-09T09:40:19;43.40;24.74
66312;HTU21D;53114;51.138;6.008;2023-07-09T09:42:50;43.61;25.21
66312;HTU21D;53114;51.138;6.008;2023-07-09T09:45:19;43.55;26.25
66312;HTU21D;53114;51.138;6.008;2023-07-09T09:47:48;43.58;25.30
66312;HTU21D;53114;51.138;6.008;2023-07-09T09:50:21;43.81;24.53
66312;HTU21D;53114;51.138;6.008;2023-07-09T09:52:49;44.29;24.30
66312;HTU21D;53114;51.138;6.008;2023-07-09T09:55:23;44.51;23.50
66312;HTU21D;53114;51.138;6.008;2023-07-09T09:57:52;44.59;22.76
66312;HTU21D;53114;51.138;6.008;2023-07-09T10:00:24;44.71;22.53
66312;HTU21D;53114;51.138;6.008;2023-07-09T10:02:57;44.70;22.66
66312;HTU21D;53114;51.138;6.008;2023-07-09T10:05:34;44.57;23.89
66312;HTU21D;53114;51.138;6.008;2023-07-09T10:11:21;44.42;24.03
66312;HTU21D;53114;51.138;6.008;2023-07-09T10:13:55;44.41;23.46
66312;HTU21D;53114;51.138;6.008;2023-07-09T10:16:34;44.00;23.85
66312;HTU21D;53114;51.138;6.008;2023-07-09T10:19:23;43.83;23.39
66312;HTU21D;53114;51.138;6.008;2023-07-09T10:27:11;42.98;23.55
66312;HTU21D;53114;51.138;6.008;2023-07-09T10:35:24;41.13;26.73
66312;HTU21D;53114;51.138;6.008;2023-07-09T10:40:43;39.38;29.11
66312;HTU21D;53114;51.138;6.008;2023-07-09T10:43:19;38.99;30.18
66312;HTU21D;53114;51.138;6.008;2023-07-09T10:45:56;39.08;29.85
66312;HTU21D;53114;51.138;6.008;2023-07-09T10:48:39;39.23;28.93
66312;HTU21D;53114;51.138;6.008;2023-07-09T10:51:31;39.26;28.42
66312;HTU21D;53114;51.138;6.008;2023-07-09T10:56:55;39.09;28.29
66312;HTU21D;53114;51.138;6.008;2023-07-09T10:59:32;39.09;28.67
66312;HTU21D;53114;51.138;6.008;2023-07-09T11:04:50;38.96;29.47
66312;HTU21D;53114;51.138;6.008;2023-07-09T11:07:25;38.96;28.61
66312;HTU21D;53114;51.138;6.008;2023-07-09T11:09:54;38.73;28.80
66312;HTU21D;53114;51.138;6.008;2023-07-09T11:12:33;38.50;29.80
66312;HTU21D;53114;51.138;6.008;2023-07-09T11:15:14;38.43;30.48
66312;HTU21D;53114;51.138;6.008;2023-07-09T11:17:45;38.48;30.16
66312;HTU21D;53114;51.138;6.008;2023-07-09T11:20:32;38.60;29.36
66312;HTU21D;53114;51.138;6.008;2023-07-09T11:23:16;38.66;29.26
66312;HTU21D;53114;51.138;6.008;2023-07-09T11:25:49;38.60;29.32
66312;HTU21D;53114;51.138;6.008;2023-07-09T11:28:15;38.47;29.46
66312;HTU21D;53114;51.138;6.008;2023-07-09T11:30:51;38.52;30.51
66312;HTU21D;53114;51.138;6.008;2023-07-09T11:33:26;38.61;30.16
66312;HTU21D;53114;51.138;6.008;2023-07-09T11:36:14;38.54;29.04
66312;HTU21D;53114;51.138;6.008;2023-07-09T11:38:55;38.54;28.96
66312;HTU21D;53114;51.138;6.008;2023-07-09T11:41:42;38.52;28.65
66312;HTU21D;53114;51.138;6.008;2023-07-09T11:44:27;38.43;28.87
66312;HTU21D;53114;51.138;6.008;2023-07-09T11:47:19;38.36;28.92
66312;HTU21D;53114;51.138;6.008;2023-07-09T11:52:52;38.00;28.74
66312;HTU21D;53114;51.138;6.008;2023-07-09T11:55:39;37.88;29.03
66312;HTU21D;53114;51.138;6.008;2023-07-09T11:58:10;37.75;29.50
66312;HTU21D;53114;51.138;6.008;2023-07-09T12:00:57;37.65;29.12
66312;HTU21D;53114;51.138;6.008;2023-07-09T12:03:34;37.49;29.30
66312;HTU21D;53114;51.138;6.008;2023-07-09T12:06:13;37.37;29.43
66312;HTU21D;53114;51.138;6.008;2023-07-09T12:08:42;37.38;29.64
66312;HTU21D;53114;51.138;6.008;2023-07-09T12:11:20;37.31;29.48
66312;HTU21D;53114;51.138;6.008;2023-07-09T12:13:47;37.26;29.31
66312;HTU21D;53114;51.138;6.008;2023-07-09T12:16:27;37.22;29.10
66312;HTU21D;53114;51.138;6.008;2023-07-09T12:18:56;37.14;29.22
66312;HTU21D;53114;51.138;6.008;2023-07-09T12:21:24;37.08;29.55
66312;HTU21D;53114;51.138;6.008;2023-07-09T12:23:52;37.07;30.54
66312;HTU21D;53114;51.138;6.008;2023-07-09T12:26:19;37.14;30.50
66312;HTU21D;53114;51.138;6.008;2023-07-09T12:28:57;37.14;30.56
66312;HTU21D;53114;51.138;6.008;2023-07-09T12:31:30;37.07;30.37
66312;HTU21D;53114;51.138;6.008;2023-07-09T12:33:58;37.02;30.93
66312;HTU21D;53114;51.138;6.008;2023-07-09T12:36:27;36.91;31.19
66312;HTU21D;53114;51.138;6.008;2023-07-09T12:39:00;36.80;31.15
66312;HTU21D;53114;51.138;6.008;2023-07-09T12:41:34;36.75;31.59
66312;HTU21D;53114;51.138;6.008;2023-07-09T12:44:02;36.69;31.52
66312;HTU21D;53114;51.138;6.008;2023-07-09T12:46:28;36.53;30.65
66312;HTU21D;53114;51.138;6.008;2023-07-09T12:48:55;36.39;30.86
66312;HTU21D;53114;51.138;6.008;2023-07-09T12:51:23;36.15;31.33
66312;HTU21D;53114;51.138;6.008;2023-07-09T12:54:05;35.90;32.55
66312;HTU21D;53114;51.138;6.008;2023-07-09T12:56:37;35.70;33.52
66312;HTU21D;53114;51.138;6.008;2023-07-09T12:59:23;35.47;34.15
66312;HTU21D;53114;51.138;6.008;2023-07-09T13:02:03;35.23;34.61
66312;HTU21D;53114;51.138;6.008;2023-07-09T13:04:38;35.04;35.33
66312;HTU21D;53114;51.138;6.008;2023-07-09T13:07:17;34.90;36.11
66312;HTU21D;53114;51.138;6.008;2023-07-09T13:09:52;34.77;36.85
66312;HTU21D;53114;51.138;6.008;2023-07-09T13:12:18;34.65;37.33
66312;HTU21D;53114;51.138;6.008;2023-07-09T13:14:53;34.49;37.68
66312;HTU21D;53114;51.138;6.008;2023-07-09T13:17:19;34.32;38.05
66312;HTU21D;53114;51.138;6.008;2023-07-09T13:19:46;34.06;39.93
66312;HTU21D;53114;51.138;6.008;2023-07-09T13:22:16;33.67;43.46
66312;HTU21D;53114;51.138;6.008;2023-07-09T13:24:42;33.11;45.57
66312;HTU21D;53114;51.138;6.008;2023-07-09T13:27:13;32.33;49.15
66312;HTU21D;53114;51.138;6.008;2023-07-09T13:29:43;31.36;51.30
66312;HTU21D;53114;51.138;6.008;2023-07-09T13:32:14;30.51;56.81
66312;HTU21D;53114;51.138;6.008;2023-07-09T13:34:41;29.86;68.50
66312;HTU21D;53114;51.138;6.008;2023-07-09T13:37:15;29.37;68.39
66312;HTU21D;53114;51.138;6.008;2023-07-09T13:39:42;29.13;79.70
66312;HTU21D;53114;51.138;6.008;2023-07-09T13:42:13;28.73;87.96
66312;HTU21D;53114;51.138;6.008;2023-07-09T13:44:41;28.08;95.52
66312;HTU21D;53114;51.138;6.008;2023-07-09T13:47:13;27.54;104.83
66312;HTU21D;53114;51.138;6.008;2023-07-09T13:49:43;27.16;112.77
66312;HTU21D;53114;51.138;6.008;2023-07-09T13:52:28;26.92;118.82
66312;HTU21D;53114;51.138;6.008;2023-07-09T13:54:58;26.65;118.99
66312;HTU21D;53114;51.138;6.008;2023-07-09T13:57:27;26.39;118.99
66312;HTU21D;53114;51.138;6.008;2023-07-09T13:59:57;26.10;118.99
66312;HTU21D;53114;51.138;6.008;2023-07-09T14:02:51;25.59;118.99
66312;HTU21D;53114;51.138;6.008;2023-07-09T14:05:40;25.00;118.99
66312;HTU21D;53114;51.138;6.008;2023-07-09T14:08:12;24.69;118.99
66312;HTU21D;53114;51.138;6.008;2023-07-09T14:10:43;24.20;118.99
66312;HTU21D;53114;51.138;6.008;2023-07-09T14:13:17;23.91;118.99
66312;HTU21D;53114;51.138;6.008;2023-07-09T14:15:44;23.61;118.99
66312;HTU21D;53114;51.138;6.008;2023-07-09T14:18:18;23.43;118.99
66312;HTU21D;53114;51.138;6.008;2023-07-09T14:20:53;23.28;118.99
66312;HTU21D;53114;51.138;6.008;2023-07-09T14:23:19;23.12;118.99
66312;HTU21D;53114;51.138;6.008;2023-07-09T14:25:46;23.03;118.99
66312;HTU21D;53114;51.138;6.008;2023-07-09T14:28:16;23.13;118.99
66312;HTU21D;53114;51.138;6.008;2023-07-09T14:30:43;23.29;118.99
66312;HTU21D;53114;51.138;6.008;2023-07-09T14:33:16;23.29;118.99
66312;HTU21D;53114;51.138;6.008;2023-07-09T14:35:44;23.17;118.99
66312;HTU21D;53114;51.138;6.008;2023-07-09T14:38:21;23.24;118.99
66312;HTU21D;53114;51.138;6.008;2023-07-09T14:40:50;23.37;118.99
66312;HTU21D;53114;51.138;6.008;2023-07-09T14:43:17;23.46;118.99
66312;HTU21D;53114;51.138;6.008;2023-07-09T14:45:44;23.35;118.99
66312;HTU21D;53114;51.138;6.008;2023-07-09T14:48:20;23.24;118.99
66312;HTU21D;53114;51.138;6.008;2023-07-09T14:50:47;23.21;118.99
66312;HTU21D;53114;51.138;6.008;2023-07-09T14:53:16;23.08;118.99
66312;HTU21D;53114;51.138;6.008;2023-07-09T14:55:43;23.07;118.99
66312;HTU21D;53114;51.138;6.008;2023-07-09T14:58:16;23.23;118.99
66312;HTU21D;53114;51.138;6.008;2023-07-09T15:00:44;23.45;118.99
66312;HTU21D;53114;51.138;6.008;2023-07-09T15:03:19;23.61;118.99
66312;HTU21D;53114;51.138;6.008;2023-07-09T15:05:46;23.74;118.99
66312;HTU21D;53114;51.138;6.008;2023-07-09T15:08:17;23.95;118.99
66312;HTU21D;53114;51.138;6.008;2023-07-09T15:10:44;24.09;118.99
66312;HTU21D;53114;51.138;6.008;2023-07-09T15:13:35;24.26;118.99
66312;HTU21D;53114;51.138;6.008;2023-07-09T15:16:03;24.43;118.99
66312;HTU21D;53114;51.138;6.008;2023-07-09T15:18:30;24.62;118.99
66312;HTU21D;53114;51.138;6.008;2023-07-09T15:20:59;24.79;118.99
66312;HTU21D;53114;51.138;6.008;2023-07-09T15:23:28;24.80;118.99
66312;HTU21D;53114;51.138;6.008;2023-07-09T15:25:56;24.83;118.99
66312;HTU21D;53114;51.138;6.008;2023-07-09T15:28:22;25.02;118.99
66312;HTU21D;53114;51.138;6.008;2023-07-09T15:30:48;25.16;118.99
66312;HTU21D;53114;51.138;6.008;2023-07-09T15:33:17;25.18;118.99
66312;HTU21D;53114;51.138;6.008;2023-07-09T15:35:46;25.20;118.99
66312;HTU21D;53114;51.138;6.008;2023-07-09T15:40:47;25.13;118.99
66312;HTU21D;53114;51.138;6.008;2023-07-09T15:43:14;25.18;118.99
66312;HTU21D;53114;51.138;6.008;2023-07-09T15:45:45;25.37;118.99
66312;HTU21D;53114;51.138;6.008;2023-07-09T15:48:34;25.59;118.99
66312;HTU21D;53114;51.138;6.008;2023-07-09T15:51:03;25.75;118.99
66312;HTU21D;53114;51.138;6.008;2023-07-09T15:53:30;25.72;118.99
66312;HTU21D;53114;51.138;6.008;2023-07-09T15:56:18;25.61;118.99
66312;HTU21D;53114;51.138;6.008;2023-07-09T15:58:46;25.71;118.99
66312;HTU21D;53114;51.138;6.008;2023-07-09T16:01:14;25.88;118.99
66312;HTU21D;53114;51.138;6.008;2023-07-09T16:03:53;25.86;118.99
66312;HTU21D;53114;51.138;6.008;2023-07-09T16:06:20;25.88;118.99